Time,TemperatureF,DewpointF,PressureIn,WindDirection,WindDirectionDegrees,WindSpeedMPH,WindSpeedGustMPH,Humidity,HourlyPrecipIn,Conditions,Clouds,dailyrainin,SoftwareType,DateUTC
2013-06-27 00:08:00,76.2,29.6,29.81,SE,131,0.0,0.0,18,0.00,,,0.00,Wunderground v.1.15,2013-06-27 06:08:00,
2013-06-27 00:18:00,76.0,29.4,29.81,SE,129,0.0,0.0,18,0.00,,,0.00,Wunderground v.1.15,2013-06-27 06:18:00,
2013-06-27 00:23:00,75.8,29.2,29.81,SE,129,0.0,0.0,18,0.00,,,0.00,Wunderground v.1.15,2013-06-27 06:23:00,
2013-06-27 00:33:00,75.4,28.9,29.81,SE,128,0.0,1.0,18,0.00,,,0.00,Wunderground v.1.15,2013-06-27 06:33:00,
2013-06-27 00:43:00,75.6,30.4,29.81,SE,141,1.0,1.0,19,0.00,,,0.00,Wunderground v.1.15,2013-06-27 06:43:00,
2013-06-27 00:53:00,75.7,29.2,29.81,SE,136,0.0,1.0,18,0.00,,,0.00,Wunderground v.1.15,2013-06-27 06:53:00,
2013-06-27 00:58:00,75.3,30.2,29.81,SE,141,0.0,0.0,19,0.00,,,0.00,Wunderground v.1.15,2013-06-27 06:58:00,
2013-06-27 01:08:00,74.8,31.0,29.81,SE,124,0.0,0.0,20,0.00,,,0.00,Wunderground v.1.15,2013-06-27 07:08:00,
2013-06-27 01:18:00,73.7,31.3,29.81,SE,124,0.0,1.0,21,0.00,,,0.00,Wunderground v.1.15,2013-06-27 07:18:00,
2013-06-27 01:28:00,73.5,32.3,29.81,ESE,114,0.0,0.0,22,0.00,,,0.00,Wunderground v.1.15,2013-06-27 07:28:00,
2013-06-27 01:38:00,73.0,31.9,29.82,ESE,115,0.0,0.0,22,0.00,,,0.00,Wunderground v.1.15,2013-06-27 07:38:00,
2013-06-27 01:43:00,72.7,31.6,29.82,ESE,115,0.0,0.0,22,0.00,,,0.00,Wunderground v.1.15,2013-06-27 07:43:00,
2013-06-27 01:53:00,72.1,32.2,29.82,ESE,114,0.0,0.0,23,0.00,,,0.00,Wunderground v.1.15,2013-06-27 07:53:00,
2013-06-27 01:58:00,71.9,32.1,29.82,ESE,115,0.0,0.0,23,0.00,,,0.00,Wunderground v.1.15,2013-06-27 07:58:00,
2013-06-27 02:08:00,71.3,31.6,29.82,ESE,115,0.0,0.0,23,0.00,,,0.00,Wunderground v.1.15,2013-06-27 08:08:00,
2013-06-27 02:13:00,71.0,31.3,29.83,ESE,115,0.0,0.0,23,0.00,,,0.00,Wunderground v.1.15,2013-06-27 08:13:00,
2013-06-27 02:23:00,70.9,32.3,29.83,ESE,117,0.0,0.0,24,0.00,,,0.00,Wunderground v.1.15,2013-06-27 08:23:00,
2013-06-27 02:28:00,70.9,33.3,29.83,ESE,117,0.0,0.0,25,0.00,,,0.00,Wunderground v.1.15,2013-06-27 08:28:00,
2013-06-27 02:38:00,70.6,34.0,29.82,ESE,118,0.0,0.0,26,0.00,,,0.00,Wunderground v.1.15,2013-06-27 08:38:00,
2013-06-27 02:48:00,70.1,33.6,29.83,ESE,119,0.0,0.0,26,0.00,,,0.00,Wunderground v.1.15,2013-06-27 08:48:00,
2013-06-27 02:53:00,70.1,32.6,29.83,ESE,122,0.0,0.0,25,0.00,,,0.00,Wunderground v.1.15,2013-06-27 08:53:00,
2013-06-27 02:58:00,70.7,34.1,29.83,SE,128,0.0,0.0,26,0.00,,,0.00,Wunderground v.1.15,2013-06-27 08:58:00,
2013-06-27 03:08:00,70.8,35.1,29.83,ENE,68,0.0,0.0,27,0.00,,,0.00,Wunderground v.1.15,2013-06-27 09:08:00,
2013-06-27 03:13:00,70.3,33.8,29.83,ENE,70,0.0,0.0,26,0.00,,,0.00,Wunderground v.1.15,2013-06-27 09:13:00,
2013-06-27 03:23:00,69.9,32.5,29.83,ESE,122,0.0,0.0,25,0.00,,,0.00,Wunderground v.1.15,2013-06-27 09:23:00,
2013-06-27 03:33:00,69.9,32.5,29.84,SE,124,0.0,0.0,25,0.00,,,0.00,Wunderground v.1.15,2013-06-27 09:33:00,
2013-06-27 03:38:00,69.7,32.3,29.84,SE,124,0.0,0.0,25,0.00,,,0.00,Wunderground v.1.15,2013-06-27 09:38:00,
2013-06-27 03:48:00,69.0,32.7,29.84,SE,124,0.0,0.0,26,0.00,,,0.00,Wunderground v.1.15,2013-06-27 09:48:00,
2013-06-27 03:58:00,68.4,31.2,29.84,SE,124,0.0,0.0,25,0.00,,,0.00,Wunderground v.1.15,2013-06-27 09:58:00,
2013-06-27 04:08:00,69.0,31.7,29.84,SE,124,0.0,0.0,25,0.00,,,0.00,Wunderground v.1.15,2013-06-27 10:08:00,
2013-06-27 04:18:00,69.0,31.7,29.85,SE,124,0.0,0.0,25,0.00,,,0.00,Wunderground v.1.15,2013-06-27 10:18:00,
2013-06-27 04:23:00,69.1,30.8,29.85,SE,124,0.0,0.0,24,0.00,,,0.00,Wunderground v.1.15,2013-06-27 10:23:00,
2013-06-27 04:33:00,69.7,30.2,29.85,SE,124,0.0,0.0,23,0.00,,,0.00,Wunderground v.1.15,2013-06-27 10:33:00,
2013-06-27 04:43:00,69.9,31.4,29.85,SE,136,0.0,0.0,24,0.00,,,0.00,Wunderground v.1.15,2013-06-27 10:43:00,
2013-06-27 04:53:00,69.3,31.9,29.85,ESE,122,0.0,0.0,25,0.00,,,0.00,Wunderground v.1.15,2013-06-27 10:53:00,
2013-06-27 04:58:00,68.9,30.6,29.86,ESE,121,0.0,0.0,24,0.00,,,0.00,Wunderground v.1.15,2013-06-27 10:58:00,
2013-06-27 05:08:00,70.1,32.6,29.86,NNW,335,0.0,0.0,25,0.00,,,0.00,Wunderground v.1.15,2013-06-27 11:08:00,
2013-06-27 05:18:00,70.9,31.2,29.86,NNW,328,0.0,0.0,23,0.00,,,0.00,Wunderground v.1.15,2013-06-27 11:18:00,
2013-06-27 05:28:00,69.9,32.5,29.86,SE,124,0.0,0.0,25,0.00,,,0.00,Wunderground v.1.15,2013-06-27 11:28:00,
2013-06-27 05:33:00,69.3,31.9,29.86,SE,137,0.0,0.0,25,0.00,,,0.00,Wunderground v.1.15,2013-06-27 11:33:00,
2013-06-27 05:43:00,68.6,32.3,29.87,SE,129,0.0,0.0,26,0.00,,,0.00,Wunderground v.1.15,2013-06-27 11:43:00,
2013-06-27 05:53:00,67.7,33.4,29.87,SE,125,0.0,0.0,28,0.00,,,0.00,Wunderground v.1.15,2013-06-27 11:53:00,
2013-06-27 05:58:00,66.9,32.7,29.87,SSE,149,0.0,0.0,28,0.00,,,0.00,Wunderground v.1.15,2013-06-27 11:58:00,
2013-06-27 06:08:00,66.5,31.5,29.88,SSE,159,0.0,0.0,27,0.00,,,0.00,Wunderground v.1.15,2013-06-27 12:08:00,
2013-06-27 06:13:00,66.2,31.2,29.88,SSE,159,0.0,0.0,27,0.00,,,0.00,Wunderground v.1.15,2013-06-27 12:13:00,
2013-06-27 06:18:00,66.2,33.0,29.88,ESE,122,0.0,2.0,29,0.00,,,0.00,Wunderground v.1.15,2013-06-27 12:18:00,
2013-06-27 06:28:00,66.4,33.2,29.89,SSE,148,0.0,0.0,29,0.00,,,0.00,Wunderground v.1.15,2013-06-27 12:28:00,
2013-06-27 06:38:00,65.9,34.4,29.89,East,84,0.0,0.0,31,0.00,,,0.00,Wunderground v.1.15,2013-06-27 12:38:00,
2013-06-27 06:43:00,66.1,33.7,29.90,East,84,0.0,0.0,30,0.00,,,0.00,Wunderground v.1.15,2013-06-27 12:43:00,
2013-06-27 06:48:00,67.1,32.0,29.90,NE,46,0.0,0.0,27,0.00,,,0.00,Wunderground v.1.15,2013-06-27 12:48:00,
2013-06-27 06:58:00,70.2,31.7,29.90,NNE,32,2.0,2.0,24,0.00,,,0.00,Wunderground v.1.15,2013-06-27 12:58:00,
2013-06-27 07:08:00,71.4,32.7,29.90,North,354,2.0,2.0,24,0.00,,,0.00,Wunderground v.1.15,2013-06-27 13:08:00,
2013-06-27 07:18:00,72.0,33.2,29.90,NE,36,1.0,1.0,24,0.00,,,0.00,Wunderground v.1.15,2013-06-27 13:18:00,
2013-06-27 07:23:00,72.2,36.3,29.91,NE,36,0.0,1.0,27,0.00,,,0.00,Wunderground v.1.15,2013-06-27 13:23:00,
2013-06-27 07:33:00,72.9,35.0,29.91,NNW,348,0.0,0.0,25,0.00,,,0.00,Wunderground v.1.15,2013-06-27 13:33:00,
2013-06-27 07:38:00,73.6,33.5,29.91,NNE,20,0.0,0.0,23,0.00,,,0.00,Wunderground v.1.15,2013-06-27 13:38:00,
2013-06-27 07:48:00,74.4,34.2,29.91,North,356,0.0,0.0,23,0.00,,,0.00,Wunderground v.1.15,2013-06-27 13:48:00,
2013-06-27 07:58:00,75.4,33.9,29.91,North,8,0.0,1.0,22,0.00,,,0.00,Wunderground v.1.15,2013-06-27 13:58:00,
2013-06-27 08:08:00,76.4,33.6,29.91,North,352,1.0,2.0,21,0.00,,,0.00,Wunderground v.1.15,2013-06-27 14:08:00,
2013-06-27 08:13:00,77.0,32.8,29.91,North,353,1.0,2.0,20,0.00,,,0.00,Wunderground v.1.15,2013-06-27 14:13:00,
2013-06-27 08:23:00,78.1,29.7,29.91,NNE,23,3.0,4.0,17,0.00,,,0.00,Wunderground v.1.15,2013-06-27 14:23:00,
2013-06-27 08:28:00,78.6,30.1,29.91,NW,325,4.0,4.0,17,0.00,,,0.00,Wunderground v.1.15,2013-06-27 14:28:00,
2013-06-27 08:38:00,79.6,32.3,29.91,NNW,345,2.0,2.0,18,0.00,,,0.00,Wunderground v.1.15,2013-06-27 14:38:00,
2013-06-27 08:48:00,80.0,29.8,29.91,NNW,335,2.0,3.0,16,0.00,,,0.00,Wunderground v.1.15,2013-06-27 14:48:00,
2013-06-27 08:53:00,80.3,30.0,29.91,NE,41,4.0,4.0,16,0.00,,,0.00,Wunderground v.1.15,2013-06-27 14:53:00,
2013-06-27 08:58:00,80.6,30.2,29.91,North,11,4.0,4.0,16,0.00,,,0.00,Wunderground v.1.15,2013-06-27 14:58:00,
2013-06-27 09:08:00,81.1,29.1,29.91,North,354,3.0,5.0,15,0.00,,,0.00,Wunderground v.1.15,2013-06-27 15:08:00,
2013-06-27 09:13:00,81.4,29.3,29.91,NNW,340,3.0,5.0,15,0.00,,,0.00,Wunderground v.1.15,2013-06-27 15:13:00,
2013-06-27 09:23:00,82.0,29.8,29.91,NE,54,3.0,5.0,15,0.00,,,0.00,Wunderground v.1.15,2013-06-27 15:23:00,
2013-06-27 09:33:00,83.0,30.6,29.91,North,5,2.0,7.0,15,0.00,,,0.00,Wunderground v.1.15,2013-06-27 15:33:00,
2013-06-27 09:43:00,84.0,33.0,29.91,NNW,336,3.0,5.0,16,0.00,,,0.00,Wunderground v.1.15,2013-06-27 15:43:00,
2013-06-27 09:53:00,84.8,30.3,29.91,NNW,328,3.0,3.0,14,0.00,,,0.00,Wunderground v.1.15,2013-06-27 15:53:00,
2013-06-27 09:58:00,85.2,28.8,29.91,WSW,249,2.0,2.0,13,0.00,,,0.00,Wunderground v.1.15,2013-06-27 15:58:00,
2013-06-27 10:08:00,85.8,29.3,29.90,NNE,32,3.0,3.0,13,0.00,,,0.00,Wunderground v.1.15,2013-06-27 16:08:00,
2013-06-27 10:13:00,86.5,29.8,29.90,NNE,30,3.0,7.0,13,0.00,,,0.00,Wunderground v.1.15,2013-06-27 16:13:00,
2013-06-27 10:18:00,86.5,29.8,29.90,North,360,3.0,3.0,13,0.00,,,0.00,Wunderground v.1.15,2013-06-27 16:18:00,
2013-06-27 10:23:00,87.0,30.2,29.90,North,357,4.0,4.0,13,0.00,,,0.00,Wunderground v.1.15,2013-06-27 16:23:00,
2013-06-27 10:33:00,87.8,30.8,29.89,NNE,25,2.0,2.0,13,0.00,,,0.00,Wunderground v.1.15,2013-06-27 16:33:00,
2013-06-27 10:43:00,89.2,31.9,29.89,North,360,1.0,3.0,13,0.00,,,0.00,Wunderground v.1.15,2013-06-27 16:43:00,
2013-06-27 10:48:00,89.5,30.2,29.89,NW,316,2.0,2.0,12,0.00,,,0.00,Wunderground v.1.15,2013-06-27 16:48:00,
2013-06-27 10:58:00,90.4,32.9,29.89,North,3,1.0,2.0,13,0.00,,,0.00,Wunderground v.1.15,2013-06-27 16:58:00,
2013-06-27 11:08:00,91.1,31.4,29.88,NE,50,3.0,3.0,12,0.00,,,0.00,Wunderground v.1.15,2013-06-27 17:08:00,
2013-06-27 11:13:00,91.5,29.6,29.88,North,353,3.0,3.0,11,0.00,,,0.00,Wunderground v.1.15,2013-06-27 17:13:00,
2013-06-27 11:23:00,92.1,30.0,29.88,NNE,26,4.0,4.0,11,0.00,,,0.00,Wunderground v.1.15,2013-06-27 17:23:00,
2013-06-27 11:33:00,93.5,33.3,29.87,NW,310,3.0,4.0,12,0.00,,,0.00,Wunderground v.1.15,2013-06-27 17:33:00,
2013-06-27 11:38:00,93.7,28.9,29.87,NNE,33,3.0,3.0,10,0.00,,,0.00,Wunderground v.1.15,2013-06-27 17:38:00,
2013-06-27 11:48:00,94.7,32.0,29.87,NW,323,3.0,3.0,11,0.00,,,0.00,Wunderground v.1.15,2013-06-27 17:48:00,
2013-06-27 11:58:00,95.3,27.5,29.87,NW,316,4.0,6.0,9,0.00,,,0.00,Wunderground v.1.15,2013-06-27 17:58:00,
2013-06-27 12:08:00,95.6,27.8,29.86,North,352,6.0,7.0,9,0.00,,,0.00,Wunderground v.1.15,2013-06-27 18:08:00,
2013-06-27 12:13:00,95.9,30.6,29.86,NNE,14,6.0,7.0,10,0.00,,,0.00,Wunderground v.1.15,2013-06-27 18:13:00,
2013-06-27 12:23:00,96.4,28.4,29.85,NNE,30,5.0,7.0,9,0.00,,,0.00,Wunderground v.1.15,2013-06-27 18:23:00,
2013-06-27 12:33:00,97.3,29.0,29.85,NW,323,4.0,6.0,9,0.00,,,0.00,Wunderground v.1.15,2013-06-27 18:33:00,
2013-06-27 12:38:00,97.5,31.8,29.85,NNE,25,5.0,6.0,10,0.00,,,0.00,Wunderground v.1.15,2013-06-27 18:38:00,
2013-06-27 12:43:00,98.0,26.7,29.85,NW,322,5.0,7.0,8,0.00,,,0.00,Wunderground v.1.15,2013-06-27 18:43:00,
2013-06-27 12:53:00,98.1,26.8,29.84,NNW,337,6.0,10.0,8,0.00,,,0.00,Wunderground v.1.15,2013-06-27 18:53:00,
2013-06-27 12:58:00,98.2,26.8,29.84,NW,321,5.0,5.0,8,0.00,,,0.00,Wunderground v.1.15,2013-06-27 18:58:00,
2013-06-27 13:08:00,98.9,30.2,29.83,NW,319,5.0,7.0,9,0.00,,,0.00,Wunderground v.1.15,2013-06-27 19:08:00,
2013-06-27 13:13:00,98.7,27.2,29.83,North,359,5.0,9.0,8,0.00,,,0.00,Wunderground v.1.15,2013-06-27 19:13:00,
2013-06-27 13:18:00,98.9,27.3,29.83,NW,318,6.0,7.0,8,0.00,,,0.00,Wunderground v.1.15,2013-06-27 19:18:00,
2013-06-27 13:28:00,99.5,24.6,29.83,NW,325,6.0,6.0,7,0.00,,,0.00,Wunderground v.1.15,2013-06-27 19:28:00,
2013-06-27 13:38:00,100.5,25.3,29.82,NW,312,3.0,8.0,7,0.00,,,0.00,Wunderground v.1.15,2013-06-27 19:38:00,
2013-06-27 13:48:00,100.4,25.2,29.81,NW,319,6.0,6.0,7,0.00,,,0.00,Wunderground v.1.15,2013-06-27 19:48:00,
2013-06-27 13:53:00,100.4,28.5,29.81,NW,326,4.0,6.0,8,0.00,,,0.00,Wunderground v.1.15,2013-06-27 19:53:00,
2013-06-27 13:58:00,100.7,25.4,29.81,NW,323,4.0,6.0,7,0.00,,,0.00,Wunderground v.1.15,2013-06-27 19:58:00,
2013-06-27 14:08:00,101.2,25.8,29.80,SE,136,4.0,4.0,7,0.00,,,0.00,Wunderground v.1.15,2013-06-27 20:08:00,
2013-06-27 14:18:00,100.8,21.8,29.80,NNW,330,4.0,4.0,6,0.00,,,0.00,Wunderground v.1.15,2013-06-27 20:18:00,
2013-06-27 14:28:00,101.5,26.0,29.80,WNW,284,3.0,3.0,7,0.00,,,0.00,Wunderground v.1.15,2013-06-27 20:28:00,
2013-06-27 14:33:00,101.5,26.0,29.79,SSW,193,3.0,4.0,7,0.00,,,0.00,Wunderground v.1.15,2013-06-27 20:33:00,
2013-06-27 14:43:00,102.0,22.7,29.79,South,172,4.0,5.0,6,0.00,,,0.00,Wunderground v.1.15,2013-06-27 20:43:00,
2013-06-27 14:53:00,101.6,22.4,29.78,NNW,347,5.0,5.0,6,0.00,,,0.00,Wunderground v.1.15,2013-06-27 20:53:00,
2013-06-27 15:03:00,102.2,22.8,29.78,SE,128,3.0,4.0,6,0.00,,,0.00,Wunderground v.1.15,2013-06-27 21:03:00,
2013-06-27 15:08:00,102.5,18.7,29.78,SE,129,3.0,3.0,5,0.00,,,0.00,Wunderground v.1.15,2013-06-27 21:08:00,
2013-06-27 15:13:00,102.7,26.9,29.77,SW,221,4.0,4.0,7,0.00,,,0.00,Wunderground v.1.15,2013-06-27 21:13:00,
2013-06-27 15:28:00,103.8,24.0,29.77,East,93,3.0,3.0,6,0.00,,,0.00,Wunderground v.1.15,2013-06-27 21:28:00,
2013-06-27 15:33:00,103.6,19.5,29.77,South,186,4.0,4.0,5,0.00,,,0.00,Wunderground v.1.15,2013-06-27 21:33:00,
2013-06-27 15:38:00,103.7,23.9,29.76,WNW,288,2.0,2.0,6,0.00,,,0.00,Wunderground v.1.15,2013-06-27 21:38:00,
2013-06-27 15:53:00,102.5,18.7,29.76,West,264,3.0,3.0,5,0.00,,,0.00,Wunderground v.1.15,2013-06-27 21:53:00,
2013-06-27 15:58:00,102.2,18.5,29.76,North,354,3.0,3.0,5,0.00,,,0.00,Wunderground v.1.15,2013-06-27 21:58:00,
2013-06-27 16:08:00,103.2,19.2,29.75,NW,308,3.0,5.0,5,0.00,,,0.00,Wunderground v.1.15,2013-06-27 22:08:00,
2013-06-27 16:13:00,103.8,19.6,29.75,WNW,296,4.0,5.0,5,0.00,,,0.00,Wunderground v.1.15,2013-06-27 22:13:00,
2013-06-27 16:23:00,103.2,19.2,29.76,NE,50,5.0,5.0,5,0.00,,,0.00,Wunderground v.1.15,2013-06-27 22:23:00,
2013-06-27 16:28:00,102.9,23.3,29.76,ESE,106,5.0,5.0,6,0.00,,,0.00,Wunderground v.1.15,2013-06-27 22:28:00,
2013-06-27 16:38:00,102.6,23.1,29.75,ENE,77,3.0,3.0,6,0.00,,,0.00,Wunderground v.1.15,2013-06-27 22:38:00,
2013-06-27 16:48:00,102.8,23.2,29.75,NNE,13,2.0,2.0,6,0.00,,,0.00,Wunderground v.1.15,2013-06-27 22:48:00,
2013-06-27 16:53:00,103.6,19.5,29.75,ENE,58,1.0,2.0,5,0.00,,,0.00,Wunderground v.1.15,2013-06-27 22:53:00,
2013-06-27 16:58:00,103.9,24.0,29.75,NNW,342,2.0,3.0,6,0.00,,,0.00,Wunderground v.1.15,2013-06-27 22:58:00,
2013-06-27 17:08:00,102.6,18.8,29.75,NNW,338,6.0,6.0,5,0.00,,,0.00,Wunderground v.1.15,2013-06-27 23:08:00,
2013-06-27 17:18:00,102.8,23.2,29.75,East,81,2.0,2.0,6,0.00,,,0.00,Wunderground v.1.15,2013-06-27 23:18:00,
2013-06-27 17:23:00,104.1,24.2,29.74,North,354,1.0,2.0,6,0.00,,,0.00,Wunderground v.1.15,2013-06-27 23:23:00,
2013-06-27 17:28:00,103.1,19.1,29.75,SW,228,2.0,2.0,5,0.00,,,0.00,Wunderground v.1.15,2013-06-27 23:28:00,
2013-06-27 17:38:00,102.9,23.3,29.74,SE,129,2.0,7.0,6,0.00,,,0.00,Wunderground v.1.15,2013-06-27 23:38:00,
2013-06-27 17:43:00,102.1,22.7,29.74,South,169,4.0,7.0,6,0.00,,,0.00,Wunderground v.1.15,2013-06-27 23:43:00,
2013-06-27 17:48:00,101.2,22.1,29.74,SSE,153,6.0,6.0,6,0.00,,,0.00,Wunderground v.1.15,2013-06-27 23:48:00,
2013-06-27 17:58:00,100.5,21.6,29.74,SSE,162,5.0,5.0,6,0.00,,,0.00,Wunderground v.1.15,2013-06-27 23:58:00,
2013-06-27 18:08:00,101.3,22.2,29.74,SSW,204,3.0,3.0,6,0.00,,,0.00,Wunderground v.1.15,2013-06-28 00:08:00,
2013-06-27 18:18:00,102.2,22.8,29.74,SE,132,3.0,6.0,6,0.00,,,0.00,Wunderground v.1.15,2013-06-28 00:18:00,
2013-06-27 18:28:00,101.8,22.5,29.74,SE,141,5.0,5.0,6,0.00,,,0.00,Wunderground v.1.15,2013-06-28 00:28:00,
2013-06-27 18:33:00,101.2,25.8,29.74,North,9,5.0,5.0,7,0.00,,,0.00,Wunderground v.1.15,2013-06-28 00:33:00,
2013-06-27 18:53:00,101.3,22.2,29.74,ENE,76,2.0,13.0,6,0.00,,,0.00,Wunderground v.1.15,2013-06-28 00:53:00,
2013-06-27 19:03:00,99.6,21.0,29.75,North,353,10.0,11.0,6,0.00,,,0.00,Wunderground v.1.15,2013-06-28 01:03:00,
2013-06-27 19:13:00,99.0,20.5,29.75,ENE,68,6.0,8.0,6,0.00,,,0.00,Wunderground v.1.15,2013-06-28 01:13:00,
2013-06-27 19:23:00,98.5,20.2,29.75,NNE,28,9.0,9.0,6,0.00,,,0.00,Wunderground v.1.15,2013-06-28 01:23:00,
2013-06-27 19:33:00,98.2,23.6,29.75,NNE,17,4.0,8.0,7,0.00,,,0.00,Wunderground v.1.15,2013-06-28 01:33:00,
2013-06-27 19:43:00,98.0,19.8,29.75,East,94,2.0,7.0,6,0.00,,,0.00,Wunderground v.1.15,2013-06-28 01:43:00,
2013-06-27 19:53:00,98.0,19.8,29.76,NNW,335,4.0,13.0,6,0.00,,,0.00,Wunderground v.1.15,2013-06-28 01:53:00,
2013-06-27 19:58:00,97.7,26.5,29.76,ESE,107,4.0,4.0,8,0.00,,,0.00,Wunderground v.1.15,2013-06-28 01:58:00,
2013-06-27 20:13:00,96.4,28.4,29.77,East,96,3.0,4.0,9,0.00,,,0.00,Wunderground v.1.15,2013-06-28 02:13:00,
2013-06-27 20:28:00,95.4,27.6,29.77,ESE,117,2.0,2.0,9,0.00,,,0.00,Wunderground v.1.15,2013-06-28 02:28:00,
2013-06-27 20:43:00,95.2,27.5,29.77,South,170,3.0,5.0,9,0.00,,,0.00,Wunderground v.1.15,2013-06-28 02:43:00,
2013-06-27 20:48:00,95.3,27.5,29.77,SE,143,5.0,5.0,9,0.00,,,0.00,Wunderground v.1.15,2013-06-28 02:48:00,
2013-06-27 20:58:00,94.7,27.1,29.78,East,89,2.0,2.0,9,0.00,,,0.00,Wunderground v.1.15,2013-06-28 02:58:00,
2013-06-27 21:08:00,93.3,28.6,29.79,NE,49,0.0,0.0,10,0.00,,,0.00,Wunderground v.1.15,2013-06-28 03:08:00,
2013-06-27 21:18:00,92.4,30.3,29.79,NE,56,0.0,0.0,11,0.00,,,0.00,Wunderground v.1.15,2013-06-28 03:18:00,
2013-06-27 21:28:00,91.4,29.5,29.79,ESE,120,0.0,0.0,11,0.00,,,0.00,Wunderground v.1.15,2013-06-28 03:28:00,
2013-06-27 21:38:00,91.3,29.4,29.79,ESE,117,1.0,1.0,11,0.00,,,0.00,Wunderground v.1.15,2013-06-28 03:38:00,
2013-06-27 21:43:00,90.5,32.9,29.79,ESE,117,0.0,1.0,13,0.00,,,0.00,Wunderground v.1.15,2013-06-28 03:43:00,
2013-06-27 21:48:00,89.5,32.2,29.79,ESE,114,0.0,0.0,13,0.00,,,0.00,Wunderground v.1.15,2013-06-28 03:48:00,
2013-06-27 21:58:00,88.4,31.3,29.81,NE,51,1.0,1.0,13,0.00,,,0.00,Wunderground v.1.15,2013-06-28 03:58:00,
2013-06-27 22:03:00,89.4,32.1,29.81,NE,47,1.0,1.0,13,0.00,,,0.00,Wunderground v.1.15,2013-06-28 04:03:00,
2013-06-27 22:08:00,89.9,30.5,29.81,East,84,1.0,1.0,12,0.00,,,0.00,Wunderground v.1.15,2013-06-28 04:08:00,
2013-06-27 22:18:00,89.8,32.4,29.81,NNE,16,0.0,1.0,13,0.00,,,0.00,Wunderground v.1.15,2013-06-28 04:18:00,
2013-06-27 22:23:00,89.4,32.1,29.81,North,3,0.0,1.0,13,0.00,,,0.00,Wunderground v.1.15,2013-06-28 04:23:00,
2013-06-27 22:33:00,88.8,31.6,29.82,WNW,302,1.0,1.0,13,0.00,,,0.00,Wunderground v.1.15,2013-06-28 04:33:00,
2013-06-27 22:38:00,88.7,31.5,29.82,NW,319,1.0,1.0,13,0.00,,,0.00,Wunderground v.1.15,2013-06-28 04:38:00,
2013-06-27 22:48:00,88.5,33.2,29.82,NW,317,1.0,2.0,14,0.00,,,0.00,Wunderground v.1.15,2013-06-28 04:48:00,
2013-06-27 22:53:00,88.6,31.4,29.82,NW,309,2.0,3.0,13,0.00,,,0.00,Wunderground v.1.15,2013-06-28 04:53:00,
2013-06-27 22:58:00,88.6,31.4,29.82,NW,326,1.0,1.0,13,0.00,,,0.00,Wunderground v.1.15,2013-06-28 04:58:00,
2013-06-27 23:08:00,87.3,32.3,29.82,South,180,1.0,1.0,14,0.00,,,0.00,Wunderground v.1.15,2013-06-28 05:08:00,
2013-06-27 23:13:00,86.5,33.4,29.82,SE,135,1.0,3.0,15,0.00,,,0.00,Wunderground v.1.15,2013-06-28 05:13:00,
2013-06-27 23:18:00,87.0,33.7,29.82,WSW,249,1.0,1.0,15,0.00,,,0.00,Wunderground v.1.15,2013-06-28 05:18:00,
2013-06-27 23:28:00,86.9,33.7,29.82,SW,228,0.0,0.0,15,0.00,,,0.00,Wunderground v.1.15,2013-06-28 05:28:00,
2013-06-27 23:33:00,86.3,33.2,29.82,SW,232,0.0,0.0,15,0.00,,,0.00,Wunderground v.1.15,2013-06-28 05:33:00,
2013-06-27 23:43:00,85.5,34.2,29.82,North,8,0.0,0.0,16,0.00,,,0.00,Wunderground v.1.15,2013-06-28 05:43:00,
2013-06-27 23:48:00,86.0,33.0,29.82,NW,326,1.0,1.0,15,0.00,,,0.00,Wunderground v.1.15,2013-06-28 05:48:00,
2013-06-27 23:58:00,86.0,33.0,29.82,NW,319,0.0,0.0,15,0.00,,,0.00,Wunderground v.1.15,2013-06-28 05:58:00,